sensor_id;sensor_type;location;lat;lon;timestamp;pressure;altitude;pressure_sealevel;temperature;humidity
54308;BME280;40208;39.778;2.710;2023-04-12T00:02:34;101108.34;;;12.17;100.00
54308;BME280;40208;39.778;2.710;2023-04-12T00:05:22;101158.50;;;12.45;100.00
54308;BME280;40208;39.778;2.710;2023-04-12T00:08:10;101115.84;;;12.08;100.00
54308;BME280;40208;39.778;2.710;2023-04-12T00:10:55;101234.59;;;12.69;100.00
54308;BME280;40208;39.778;2.710;2023-04-12T00:13:40;101071.34;;;11.73;100.00
54308;BME280;40208;39.778;2.710;2023-04-12T00:16:25;101118.19;;;12.15;100.00
54308;BME280;40208;39.778;2.710;2023-04-12T00:19:10;101150.59;;;12.24;100.00
54308;BME280;40208;39.778;2.710;2023-04-12T00:21:55;101053.78;;;11.68;100.00
54308;BME280;40208;39.778;2.710;2023-04-12T00:24:40;101173.75;;;12.41;100.00
54308;BME280;40208;39.778;2.710;2023-04-12T00:27:25;101016.34;;;11.54;100.00
54308;BME280;40208;39.778;2.710;2023-04-12T00:30:10;100824.47;;;10.09;100.00
54308;BME280;40208;39.778;2.710;2023-04-12T00:32:55;101213.34;;;12.49;100.00
54308;BME280;40208;39.778;2.710;2023-04-12T00:35:39;100874.28;;;10.43;100.00
54308;BME280;40208;39.778;2.710;2023-04-12T00:38:25;100919.44;;;10.64;100.00
54308;BME280;40208;39.778;2.710;2023-04-12T00:41:09;101098.66;;;11.76;100.00
54308;BME280;40208;39.778;2.710;2023-04-12T00:43:54;100889.81;;;10.52;100.00
54308;BME280;40208;39.778;2.710;2023-04-12T00:46:39;100706.22;;;9.42;100.00
54308;BME280;40208;39.778;2.710;2023-04-12T00:49:27;101090.41;;;11.62;100.00
54308;BME280;40208;39.778;2.710;2023-04-12T00:52:14;101147.59;;;11.72;100.00
54308;BME280;40208;39.778;2.710;2023-04-12T00:55:05;101113.69;;;11.57;100.00
54308;BME280;40208;39.778;2.710;2023-04-12T00:57:51;101078.69;;;11.47;100.00
54308;BME280;40208;39.778;2.710;2023-04-12T01:00:36;100920.53;;;10.37;100.00
54308;BME280;40208;39.778;2.710;2023-04-12T01:03:22;101094.22;;;11.56;100.00
54308;BME280;40208;39.778;2.710;2023-04-12T01:09:28;101198.94;;;11.95;100.00
54308;BME280;40208;39.778;2.710;2023-04-12T01:15:17;101072.81;;;11.39;100.00
54308;BME280;40208;39.778;2.710;2023-04-12T01:18:06;100937.44;;;10.35;100.00
54308;BME280;40208;39.778;2.710;2023-04-12T01:21:01;101155.22;;;11.80;100.00
54308;BME280;40208;39.778;2.710;2023-04-12T01:24:08;101031.88;;;11.03;100.00
54308;BME280;40208;39.778;2.710;2023-04-12T01:26:59;101079.56;;;11.27;100.00
54308;BME280;40208;39.778;2.710;2023-04-12T01:29:47;100925.22;;;10.31;100.00
54308;BME280;40208;39.778;2.710;2023-04-12T01:32:34;101028.06;;;10.89;100.00
54308;BME280;40208;39.778;2.710;2023-04-12T01:35:25;100967.63;;;10.32;100.00
54308;BME280;40208;39.778;2.710;2023-04-12T01:38:11;100966.31;;;10.43;100.00
54308;BME280;40208;39.778;2.710;2023-04-12T01:40:56;101042.41;;;10.85;100.00
54308;BME280;40208;39.778;2.710;2023-04-12T01:43:42;101033.03;;;10.76;100.00
54308;BME280;40208;39.778;2.710;2023-04-12T01:46:27;100986.41;;;10.48;100.00
54308;BME280;40208;39.778;2.710;2023-04-12T01:49:14;101069.34;;;10.75;100.00
54308;BME280;40208;39.778;2.710;2023-04-12T01:52:18;101161.66;;;11.33;100.00
54308;BME280;40208;39.778;2.710;2023-04-12T01:55:05;100930.28;;;9.93;100.00
54308;BME280;40208;39.778;2.710;2023-04-12T01:57:51;101174.56;;;11.42;100.00
54308;BME280;40208;39.778;2.710;2023-04-12T02:00:37;101044.03;;;10.67;100.00
54308;BME280;40208;39.778;2.710;2023-04-12T02:03:23;101072.72;;;10.79;100.00
54308;BME280;40208;39.778;2.710;2023-04-12T02:06:09;101145.09;;;11.27;100.00
54308;BME280;40208;39.778;2.710;2023-04-12T02:08:59;100905.34;;;9.53;100.00
54308;BME280;40208;39.778;2.710;2023-04-12T02:11:46;101019.78;;;10.32;100.00
54308;BME280;40208;39.778;2.710;2023-04-12T02:14:32;101141.16;;;10.94;100.00
54308;BME280;40208;39.778;2.710;2023-04-12T02:17:17;101119.72;;;10.99;100.00
54308;BME280;40208;39.778;2.710;2023-04-12T02:20:04;101090.50;;;10.77;100.00
54308;BME280;40208;39.778;2.710;2023-04-12T02:22:53;100869.59;;;9.63;100.00
54308;BME280;40208;39.778;2.710;2023-04-12T02:25:38;101047.06;;;10.57;100.00
54308;BME280;40208;39.778;2.710;2023-04-12T02:28:25;101012.88;;;10.50;100.00
54308;BME280;40208;39.778;2.710;2023-04-12T02:31:09;101008.91;;;10.39;100.00
54308;BME280;40208;39.778;2.710;2023-04-12T02:33:55;100898.22;;;9.99;100.00
54308;BME280;40208;39.778;2.710;2023-04-12T02:36:40;101043.28;;;10.85;100.00
54308;BME280;40208;39.778;2.710;2023-04-12T02:39:25;101052.13;;;11.06;100.00
54308;BME280;40208;39.778;2.710;2023-04-12T02:42:09;101077.44;;;11.35;100.00
54308;BME280;40208;39.778;2.710;2023-04-12T02:44:54;101045.44;;;11.18;100.00
54308;BME280;40208;39.778;2.710;2023-04-12T02:47:39;100922.53;;;10.53;100.00
54308;BME280;40208;39.778;2.710;2023-04-12T02:50:24;100915.59;;;10.28;100.00
54308;BME280;40208;39.778;2.710;2023-04-12T02:53:09;100993.75;;;10.84;100.00
54308;BME280;40208;39.778;2.710;2023-04-12T02:55:54;101069.53;;;11.13;100.00
54308;BME280;40208;39.778;2.710;2023-04-12T02:58:40;100975.06;;;10.45;100.00
54308;BME280;40208;39.778;2.710;2023-04-12T03:01:25;100975.50;;;10.56;100.00
54308;BME280;40208;39.778;2.710;2023-04-12T03:04:10;100928.91;;;10.27;100.00
54308;BME280;40208;39.778;2.710;2023-04-12T03:06:55;101041.50;;;11.06;100.00
54308;BME280;40208;39.778;2.710;2023-04-12T03:09:40;100956.03;;;10.55;100.00
54308;BME280;40208;39.778;2.710;2023-04-12T03:12:26;101016.72;;;11.06;100.00
54308;BME280;40208;39.778;2.710;2023-04-12T03:15:11;101062.28;;;11.17;100.00
54308;BME280;40208;39.778;2.710;2023-04-12T03:17:56;100921.19;;;10.43;100.00
54308;BME280;40208;39.778;2.710;2023-04-12T03:20:41;100971.84;;;10.79;100.00
54308;BME280;40208;39.778;2.710;2023-04-12T03:23:27;100921.66;;;10.52;100.00
54308;BME280;40208;39.778;2.710;2023-04-12T03:26:11;101063.59;;;11.48;100.00
54308;BME280;40208;39.778;2.710;2023-04-12T03:28:59;101058.16;;;11.30;100.00
54308;BME280;40208;39.778;2.710;2023-04-12T03:31:44;100999.00;;;10.86;100.00
54308;BME280;40208;39.778;2.710;2023-04-12T03:34:29;100876.69;;;10.27;100.00
54308;BME280;40208;39.778;2.710;2023-04-12T03:37:15;100956.97;;;10.54;100.00
54308;BME280;40208;39.778;2.710;2023-04-12T03:40:00;100741.91;;;9.33;100.00
54308;BME280;40208;39.778;2.710;2023-04-12T03:42:45;100998.84;;;10.89;100.00
54308;BME280;40208;39.778;2.710;2023-04-12T03:45:30;100966.06;;;10.69;100.00
54308;BME280;40208;39.778;2.710;2023-04-12T03:48:15;100777.06;;;9.37;100.00
54308;BME280;40208;39.778;2.710;2023-04-12T03:51:00;100899.28;;;10.15;100.00
54308;BME280;40208;39.778;2.710;2023-04-12T03:53:52;101063.75;;;11.03;100.00
54308;BME280;40208;39.778;2.710;2023-04-12T03:56:39;101054.22;;;10.98;100.00
54308;BME280;40208;39.778;2.710;2023-04-12T03:59:24;100931.34;;;10.33;100.00
54308;BME280;40208;39.778;2.710;2023-04-12T04:02:09;100889.88;;;10.08;100.00
54308;BME280;40208;39.778;2.710;2023-04-12T04:04:54;101004.31;;;10.86;100.00
54308;BME280;40208;39.778;2.710;2023-04-12T04:07:39;100950.91;;;10.51;100.00
54308;BME280;40208;39.778;2.710;2023-04-12T04:10:23;100969.94;;;10.40;100.00
54308;BME280;40208;39.778;2.710;2023-04-12T04:13:08;101029.34;;;10.80;100.00
54308;BME280;40208;39.778;2.710;2023-04-12T04:16:02;100990.25;;;10.41;100.00
54308;BME280;40208;39.778;2.710;2023-04-12T04:18:48;100962.09;;;10.15;100.00
54308;BME280;40208;39.778;2.710;2023-04-12T04:21:32;100808.47;;;9.46;100.00
54308;BME280;40208;39.778;2.710;2023-04-12T04:24:17;100928.03;;;10.26;100.00
54308;BME280;40208;39.778;2.710;2023-04-12T04:27:02;100945.44;;;10.11;100.00
54308;BME280;40208;39.778;2.710;2023-04-12T04:29:47;100852.00;;;9.62;100.00
54308;BME280;40208;39.778;2.710;2023-04-12T04:32:34;100990.03;;;10.46;100.00
54308;BME280;40208;39.778;2.710;2023-04-12T04:35:19;100894.47;;;9.83;100.00
54308;BME280;40208;39.778;2.710;2023-04-12T04:38:05;100805.03;;;9.22;100.00
54308;BME280;40208;39.778;2.710;2023-04-12T04:40:50;100865.84;;;9.47;100.00
54308;BME280;40208;39.778;2.710;2023-04-12T04:43:38;100951.66;;;9.88;100.00
54308;BME280;40208;39.778;2.710;2023-04-12T04:46:24;100889.94;;;9.63;100.00
54308;BME280;40208;39.778;2.710;2023-04-12T04:49:09;100887.25;;;9.64;100.00
54308;BME280;40208;39.778;2.710;2023-04-12T04:51:53;100841.91;;;9.26;100.00
54308;BME280;40208;39.778;2.710;2023-04-12T04:54:38;100867.88;;;9.40;100.00
54308;BME280;40208;39.778;2.710;2023-04-12T04:57:23;101036.41;;;10.37;100.00
54308;BME280;40208;39.778;2.710;2023-04-12T05:00:10;100933.59;;;9.54;100.00
54308;BME280;40208;39.778;2.710;2023-04-12T05:02:55;101051.75;;;10.29;100.00
54308;BME280;40208;39.778;2.710;2023-04-12T05:05:40;101008.69;;;9.98;100.00
54308;BME280;40208;39.778;2.710;2023-04-12T05:08:24;100884.41;;;9.23;100.00
54308;BME280;40208;39.778;2.710;2023-04-12T05:11:09;100946.53;;;9.62;100.00
54308;BME280;40208;39.778;2.710;2023-04-12T05:13:54;100904.84;;;9.43;100.00
54308;BME280;40208;39.778;2.710;2023-04-12T05:16:39;101035.53;;;10.13;100.00
54308;BME280;40208;39.778;2.710;2023-04-12T05:19:24;100816.09;;;8.86;100.00
54308;BME280;40208;39.778;2.710;2023-04-12T05:22:09;100827.59;;;8.85;100.00
54308;BME280;40208;39.778;2.710;2023-04-12T05:24:53;100857.47;;;9.12;100.00
54308;BME280;40208;39.778;2.710;2023-04-12T05:27:39;100753.16;;;8.22;100.00
54308;BME280;40208;39.778;2.710;2023-04-12T05:30:24;101017.81;;;9.91;100.00
54308;BME280;40208;39.778;2.710;2023-04-12T05:33:09;100948.09;;;9.44;100.00
54308;BME280;40208;39.778;2.710;2023-04-12T05:35:55;100968.09;;;9.74;100.00
54308;BME280;40208;39.778;2.710;2023-04-12T05:38:40;100906.31;;;9.50;100.00
54308;BME280;40208;39.778;2.710;2023-04-12T05:41:24;100481.34;;;6.92;100.00
54308;BME280;40208;39.778;2.710;2023-04-12T05:44:11;100816.16;;;8.84;100.00
54308;BME280;40208;39.778;2.710;2023-04-12T05:46:56;100684.00;;;8.33;100.00
54308;BME280;40208;39.778;2.710;2023-04-12T05:49:41;100728.75;;;8.39;100.00
54308;BME280;40208;39.778;2.710;2023-04-12T05:52:27;100860.66;;;9.44;100.00
54308;BME280;40208;39.778;2.710;2023-04-12T05:55:12;100496.41;;;7.13;100.00
54308;BME280;40208;39.778;2.710;2023-04-12T05:57:56;100732.81;;;8.73;100.00
54308;BME280;40208;39.778;2.710;2023-04-12T06:00:42;100918.31;;;9.83;100.00
54308;BME280;40208;39.778;2.710;2023-04-12T06:03:28;100724.66;;;8.55;100.00
54308;BME280;40208;39.778;2.710;2023-04-12T06:06:14;100605.88;;;7.78;100.00
54308;BME280;40208;39.778;2.710;2023-04-12T06:08:58;100542.00;;;7.42;100.00
54308;BME280;40208;39.778;2.710;2023-04-12T06:11:45;100610.28;;;8.01;100.00
54308;BME280;40208;39.778;2.710;2023-04-12T06:14:30;100636.66;;;8.03;100.00
54308;BME280;40208;39.778;2.710;2023-04-12T06:17:16;100785.94;;;9.13;100.00
54308;BME280;40208;39.778;2.710;2023-04-12T06:20:02;100794.06;;;9.31;100.00
54308;BME280;40208;39.778;2.710;2023-04-12T06:22:49;100750.66;;;8.89;100.00
54308;BME280;40208;39.778;2.710;2023-04-12T06:25:33;100670.88;;;8.55;100.00
54308;BME280;40208;39.778;2.710;2023-04-12T06:28:18;100850.81;;;9.69;100.00
54308;BME280;40208;39.778;2.710;2023-04-12T06:31:03;100942.00;;;10.09;100.00
54308;BME280;40208;39.778;2.710;2023-04-12T06:33:49;100728.25;;;9.00;100.00
54308;BME280;40208;39.778;2.710;2023-04-12T06:36:34;100705.94;;;9.05;100.00
54308;BME280;40208;39.778;2.710;2023-04-12T06:39:18;100820.44;;;9.78;100.00
54308;BME280;40208;39.778;2.710;2023-04-12T06:42:04;100761.47;;;9.51;100.00
54308;BME280;40208;39.778;2.710;2023-04-12T06:44:49;100829.09;;;10.04;100.00
54308;BME280;40208;39.778;2.710;2023-04-12T06:47:34;100940.06;;;10.77;100.00
54308;BME280;40208;39.778;2.710;2023-04-12T06:50:18;100826.63;;;10.19;100.00
54308;BME280;40208;39.778;2.710;2023-04-12T06:53:03;100797.47;;;9.99;100.00
54308;BME280;40208;39.778;2.710;2023-04-12T06:55:48;100865.25;;;10.68;100.00
54308;BME280;40208;39.778;2.710;2023-04-12T06:58:33;100833.38;;;10.49;100.00
54308;BME280;40208;39.778;2.710;2023-04-12T07:01:18;100621.13;;;9.29;100.00
54308;BME280;40208;39.778;2.710;2023-04-12T07:04:02;100816.97;;;10.59;100.00
54308;BME280;40208;39.778;2.710;2023-04-12T07:06:47;100753.44;;;10.36;100.00
54308;BME280;40208;39.778;2.710;2023-04-12T07:09:32;100799.56;;;10.73;100.00
54308;BME280;40208;39.778;2.710;2023-04-12T07:12:17;100906.78;;;11.48;100.00
54308;BME280;40208;39.778;2.710;2023-04-12T07:15:02;100815.81;;;11.04;100.00
54308;BME280;40208;39.778;2.710;2023-04-12T07:17:46;100890.25;;;11.60;100.00
54308;BME280;40208;39.778;2.710;2023-04-12T07:20:31;100816.75;;;11.22;100.00
54308;BME280;40208;39.778;2.710;2023-04-12T07:23:16;100840.13;;;11.33;100.00
54308;BME280;40208;39.778;2.710;2023-04-12T07:26:01;100945.91;;;12.20;100.00
54308;BME280;40208;39.778;2.710;2023-04-12T07:28:46;100837.28;;;11.74;100.00
54308;BME280;40208;39.778;2.710;2023-04-12T07:31:31;100869.28;;;12.09;100.00
54308;BME280;40208;39.778;2.710;2023-04-12T07:34:16;100920.50;;;12.49;100.00
54308;BME280;40208;39.778;2.710;2023-04-12T07:37:01;100699.16;;;11.36;100.00
54308;BME280;40208;39.778;2.710;2023-04-12T07:39:45;100713.88;;;11.61;100.00
54308;BME280;40208;39.778;2.710;2023-04-12T07:42:30;100866.53;;;12.63;100.00
54308;BME280;40208;39.778;2.710;2023-04-12T07:45:15;100836.22;;;12.65;100.00
54308;BME280;40208;39.778;2.710;2023-04-12T07:48:00;100741.16;;;12.34;100.00
54308;BME280;40208;39.778;2.710;2023-04-12T07:50:45;100787.94;;;12.71;100.00
54308;BME280;40208;39.778;2.710;2023-04-12T07:53:30;100824.97;;;13.25;100.00
54308;BME280;40208;39.778;2.710;2023-04-12T07:56:15;100569.09;;;12.01;100.00
54308;BME280;40208;39.778;2.710;2023-04-12T07:58:59;100921.47;;;14.27;100.00
54308;BME280;40208;39.778;2.710;2023-04-12T08:01:44;100829.56;;;14.01;100.00
54308;BME280;40208;39.778;2.710;2023-04-12T08:04:29;100724.53;;;13.57;100.00
54308;BME280;40208;39.778;2.710;2023-04-12T08:07:14;100842.19;;;14.43;100.00
54308;BME280;40208;39.778;2.710;2023-04-12T08:09:59;100843.38;;;14.68;100.00
54308;BME280;40208;39.778;2.710;2023-04-12T08:12:44;100816.00;;;14.65;100.00
54308;BME280;40208;39.778;2.710;2023-04-12T08:15:29;100804.91;;;14.99;100.00
54308;BME280;40208;39.778;2.710;2023-04-12T08:18:14;100807.69;;;15.12;100.00
54308;BME280;40208;39.778;2.710;2023-04-12T08:20:59;100721.19;;;14.72;100.00
54308;BME280;40208;39.778;2.710;2023-04-12T08:23:44;100894.63;;;16.02;100.00
54308;BME280;40208;39.778;2.710;2023-04-12T08:26:29;100817.47;;;15.67;100.00
54308;BME280;40208;39.778;2.710;2023-04-12T08:29:13;100772.72;;;15.57;100.00
54308;BME280;40208;39.778;2.710;2023-04-12T08:31:59;100770.25;;;15.81;100.00
54308;BME280;40208;39.778;2.710;2023-04-12T08:34:44;100713.81;;;15.71;100.00
54308;BME280;40208;39.778;2.710;2023-04-12T08:37:30;100926.97;;;17.05;100.00
54308;BME280;40208;39.778;2.710;2023-04-12T08:40:15;100815.88;;;16.70;100.00
54308;BME280;40208;39.778;2.710;2023-04-12T08:43:00;100852.50;;;17.21;100.00
54308;BME280;40208;39.778;2.710;2023-04-12T08:45:49;100808.19;;;17.28;100.00
54308;BME280;40208;39.778;2.710;2023-04-12T08:48:34;100894.00;;;17.78;100.00
54308;BME280;40208;39.778;2.710;2023-04-12T08:51:20;100800.31;;;17.38;100.00
54308;BME280;40208;39.778;2.710;2023-04-12T08:54:05;100812.78;;;17.63;100.00
54308;BME280;40208;39.778;2.710;2023-04-12T08:56:50;100887.50;;;18.17;100.00
54308;BME280;40208;39.778;2.710;2023-04-12T08:59:38;100853.31;;;18.08;100.00
54308;BME280;40208;39.778;2.710;2023-04-12T09:02:25;100818.84;;;18.02;100.00
54308;BME280;40208;39.778;2.710;2023-04-12T09:05:10;100883.13;;;18.52;100.00
54308;BME280;40208;39.778;2.710;2023-04-12T09:07:56;100860.88;;;18.50;100.00
54308;BME280;40208;39.778;2.710;2023-04-12T09:10:41;100703.59;;;17.64;100.00
54308;BME280;40208;39.778;2.710;2023-04-12T09:13:35;100789.50;;;18.23;100.00
54308;BME280;40208;39.778;2.710;2023-04-12T09:16:41;100668.56;;;17.54;100.00
54308;BME280;40208;39.778;2.710;2023-04-12T09:19:43;100895.31;;;19.02;100.00
54308;BME280;40208;39.778;2.710;2023-04-12T09:22:32;100908.53;;;19.17;100.00
54308;BME280;40208;39.778;2.710;2023-04-12T09:25:35;100869.91;;;19.18;100.00
54308;BME280;40208;39.778;2.710;2023-04-12T09:31:14;100932.53;;;19.76;100.00
54308;BME280;40208;39.778;2.710;2023-04-12T09:34:07;100644.28;;;18.02;100.00
54308;BME280;40208;39.778;2.710;2023-04-12T09:36:52;100764.75;;;18.76;100.00
54308;BME280;40208;39.778;2.710;2023-04-12T09:39:37;100663.81;;;18.04;100.00
54308;BME280;40208;39.778;2.710;2023-04-12T09:42:21;100823.44;;;19.04;100.00
54308;BME280;40208;39.778;2.710;2023-04-12T09:45:23;100931.31;;;19.69;100.00
54308;BME280;40208;39.778;2.710;2023-04-12T09:48:18;100916.38;;;19.65;100.00
54308;BME280;40208;39.778;2.710;2023-04-12T09:51:05;100842.00;;;19.30;100.00
54308;BME280;40208;39.778;2.710;2023-04-12T09:53:50;100720.97;;;18.62;100.00
54308;BME280;40208;39.778;2.710;2023-04-12T09:56:35;100862.16;;;19.58;100.00
54308;BME280;40208;39.778;2.710;2023-04-12T09:59:25;100691.28;;;18.75;100.00
54308;BME280;40208;39.778;2.710;2023-04-12T10:02:14;100869.53;;;20.00;100.00
54308;BME280;40208;39.778;2.710;2023-04-12T10:05:02;100856.50;;;20.05;100.00
54308;BME280;40208;39.778;2.710;2023-04-12T10:07:47;100650.06;;;18.97;100.00
54308;BME280;40208;39.778;2.710;2023-04-12T10:10:32;100859.84;;;20.29;100.00
54308;BME280;40208;39.778;2.710;2023-04-12T10:13:17;100817.25;;;20.44;100.00
54308;BME280;40208;39.778;2.710;2023-04-12T10:16:04;100765.25;;;20.32;100.00
54308;BME280;40208;39.778;2.710;2023-04-12T10:18:50;100863.53;;;20.91;100.00
54308;BME280;40208;39.778;2.710;2023-04-12T10:21:35;100714.06;;;20.11;100.00
54308;BME280;40208;39.778;2.710;2023-04-12T10:24:22;100665.66;;;19.79;100.00
54308;BME280;40208;39.778;2.710;2023-04-12T10:27:07;100779.56;;;20.54;100.00
54308;BME280;40208;39.778;2.710;2023-04-12T10:29:52;100834.69;;;21.23;100.00
54308;BME280;40208;39.778;2.710;2023-04-12T10:32:36;100762.84;;;20.81;100.00
54308;BME280;40208;39.778;2.710;2023-04-12T10:35:21;100851.59;;;21.55;100.00
54308;BME280;40208;39.778;2.710;2023-04-12T10:38:06;100643.78;;;20.24;100.00
54308;BME280;40208;39.778;2.710;2023-04-12T10:44:23;100832.16;;;21.81;100.00
54308;BME280;40208;39.778;2.710;2023-04-12T10:47:09;100747.59;;;21.30;100.00
54308;BME280;40208;39.778;2.710;2023-04-12T10:50:24;100813.97;;;21.93;100.00
54308;BME280;40208;39.778;2.710;2023-04-12T10:55:58;100749.13;;;21.83;100.00
54308;BME280;40208;39.778;2.710;2023-04-12T11:01:34;100482.13;;;20.44;100.00
54308;BME280;40208;39.778;2.710;2023-04-12T11:04:20;100631.84;;;21.47;100.00
54308;BME280;40208;39.778;2.710;2023-04-12T11:07:09;100796.31;;;22.75;100.00
54308;BME280;40208;39.778;2.710;2023-04-12T11:09:56;100775.47;;;22.85;99.90
54308;BME280;40208;39.778;2.710;2023-04-12T11:12:47;100702.47;;;22.48;94.06
54308;BME280;40208;39.778;2.710;2023-04-12T11:15:33;100727.31;;;22.61;88.70
54308;BME280;40208;39.778;2.710;2023-04-12T11:18:17;100785.69;;;23.01;88.97
54308;BME280;40208;39.778;2.710;2023-04-12T11:21:02;100641.78;;;22.13;83.76
54308;BME280;40208;39.778;2.710;2023-04-12T11:23:51;100746.56;;;22.58;86.69
54308;BME280;40208;39.778;2.710;2023-04-12T11:26:37;100800.00;;;22.83;85.37
54308;BME280;40208;39.778;2.710;2023-04-12T11:29:23;100767.78;;;22.53;85.75
54308;BME280;40208;39.778;2.710;2023-04-12T11:32:12;100781.25;;;22.72;84.29
54308;BME280;40208;39.778;2.710;2023-04-12T11:35:00;100464.81;;;20.75;85.53
54308;BME280;40208;39.778;2.710;2023-04-12T11:37:45;100745.13;;;22.54;83.58
54308;BME280;40208;39.778;2.710;2023-04-12T11:40:30;100801.94;;;22.54;87.50
54308;BME280;40208;39.778;2.710;2023-04-12T11:43:19;100668.50;;;21.59;88.48
54308;BME280;40208;39.778;2.710;2023-04-12T11:46:05;100724.34;;;21.88;89.86
54308;BME280;40208;39.778;2.710;2023-04-12T11:48:50;100712.97;;;21.84;90.03
54308;BME280;40208;39.778;2.710;2023-04-12T11:51:35;100731.59;;;21.87;90.44
54308;BME280;40208;39.778;2.710;2023-04-12T11:54:27;100741.41;;;22.08;90.02
54308;BME280;40208;39.778;2.710;2023-04-12T11:57:17;100697.78;;;21.83;89.85
54308;BME280;40208;39.778;2.710;2023-04-12T12:00:02;100695.41;;;22.17;86.89
54308;BME280;40208;39.778;2.710;2023-04-12T12:02:49;100754.09;;;22.64;84.89
54308;BME280;40208;39.778;2.710;2023-04-12T12:05:39;100505.94;;;21.16;84.45
54308;BME280;40208;39.778;2.710;2023-04-12T12:08:25;100642.81;;;22.12;83.31
54308;BME280;40208;39.778;2.710;2023-04-12T12:11:09;100494.28;;;21.26;81.19
54308;BME280;40208;39.778;2.710;2023-04-12T12:13:55;100568.00;;;21.65;81.45
54308;BME280;40208;39.778;2.710;2023-04-12T12:16:40;100570.50;;;21.86;77.08
54308;BME280;40208;39.778;2.710;2023-04-12T12:19:36;100474.13;;;21.39;79.73
54308;BME280;40208;39.778;2.710;2023-04-12T12:22:21;100392.13;;;20.93;78.03
54308;BME280;40208;39.778;2.710;2023-04-12T12:25:06;100533.72;;;21.66;79.21
54308;BME280;40208;39.778;2.710;2023-04-12T12:27:56;100398.50;;;20.92;77.07
54308;BME280;40208;39.778;2.710;2023-04-12T12:30:41;100477.22;;;21.35;78.47
54308;BME280;40208;39.778;2.710;2023-04-12T12:33:36;100536.78;;;21.80;77.09
54308;BME280;40208;39.778;2.710;2023-04-12T12:36:31;100398.31;;;21.13;75.96
54308;BME280;40208;39.778;2.710;2023-04-12T12:39:16;100572.34;;;22.23;76.43
54308;BME280;40208;39.778;2.710;2023-04-12T12:42:01;100679.53;;;22.79;77.99
54308;BME280;40208;39.778;2.710;2023-04-12T12:44:49;100708.41;;;23.16;76.37
54308;BME280;40208;39.778;2.710;2023-04-12T12:47:47;100618.66;;;22.65;75.57
54308;BME280;40208;39.778;2.710;2023-04-12T12:50:33;100640.13;;;22.95;73.09
54308;BME280;40208;39.778;2.710;2023-04-12T12:53:19;100608.25;;;22.89;70.46
54308;BME280;40208;39.778;2.710;2023-04-12T12:56:07;100622.31;;;23.02;71.55
54308;BME280;40208;39.778;2.710;2023-04-12T12:58:53;100721.63;;;23.55;72.12
54308;BME280;40208;39.778;2.710;2023-04-12T13:01:38;100628.59;;;22.93;71.83
54308;BME280;40208;39.778;2.710;2023-04-12T13:04:23;100670.19;;;23.19;71.91
54308;BME280;40208;39.778;2.710;2023-04-12T13:07:08;100608.25;;;22.89;69.55
54308;BME280;40208;39.778;2.710;2023-04-12T13:09:53;100554.69;;;22.47;69.37
54308;BME280;40208;39.778;2.710;2023-04-12T13:12:38;100613.34;;;22.92;70.43
54308;BME280;40208;39.778;2.710;2023-04-12T13:15:23;100668.50;;;23.18;71.25
54308;BME280;40208;39.778;2.710;2023-04-12T13:18:08;100592.63;;;22.82;69.73
54308;BME280;40208;39.778;2.710;2023-04-12T13:20:52;100647.06;;;23.07;69.58
54308;BME280;40208;39.778;2.710;2023-04-12T13:23:37;100607.94;;;22.92;68.53
54308;BME280;40208;39.778;2.710;2023-04-12T13:26:22;100694.78;;;23.44;69.10
54308;BME280;40208;39.778;2.710;2023-04-12T13:29:09;100613.34;;;22.92;70.20
54308;BME280;40208;39.778;2.710;2023-04-12T13:31:54;100569.13;;;22.65;68.57
54308;BME280;40208;39.778;2.710;2023-04-12T13:34:39;100564.84;;;22.62;70.17
54308;BME280;40208;39.778;2.710;2023-04-12T13:37:23;100561.94;;;22.74;69.38
54308;BME280;40208;39.778;2.710;2023-04-12T13:40:08;100646.03;;;23.08;70.99
54308;BME280;40208;39.778;2.710;2023-04-12T13:42:53;100587.13;;;22.74;70.80
54308;BME280;40208;39.778;2.710;2023-04-12T13:45:38;100526.31;;;22.33;70.01
54308;BME280;40208;39.778;2.710;2023-04-12T13:48:22;100573.84;;;22.81;69.44
54308;BME280;40208;39.778;2.710;2023-04-12T13:51:08;100517.94;;;22.36;69.95
54308;BME280;40208;39.778;2.710;2023-04-12T13:53:53;100659.59;;;23.26;70.50
54308;BME280;40208;39.778;2.710;2023-04-12T13:56:38;100533.06;;;22.47;70.49
54308;BME280;40208;39.778;2.710;2023-04-12T13:59:24;100546.06;;;22.61;70.97
54308;BME280;40208;39.778;2.710;2023-04-12T14:02:10;100623.34;;;22.91;71.78
54308;BME280;40208;39.778;2.710;2023-04-12T14:04:55;100599.19;;;22.80;71.38
54308;BME280;40208;39.778;2.710;2023-04-12T14:07:40;100579.53;;;22.78;70.07
54308;BME280;40208;39.778;2.710;2023-04-12T14:10:25;100570.06;;;22.74;70.12
54308;BME280;40208;39.778;2.710;2023-04-12T14:13:10;100591.38;;;22.77;69.43
54308;BME280;40208;39.778;2.710;2023-04-12T14:15:55;100621.84;;;22.97;69.63
54308;BME280;40208;39.778;2.710;2023-04-12T14:18:41;100657.63;;;23.00;71.30
54308;BME280;40208;39.778;2.710;2023-04-12T14:21:26;100637.63;;;22.83;70.58
54308;BME280;40208;39.778;2.710;2023-04-12T14:24:13;100635.91;;;22.82;71.64
54308;BME280;40208;39.778;2.710;2023-04-12T14:26:58;100576.66;;;22.43;72.00
54308;BME280;40208;39.778;2.710;2023-04-12T14:29:44;100650.47;;;22.81;72.78
54308;BME280;40208;39.778;2.710;2023-04-12T14:32:28;100562.22;;;22.25;71.45
54308;BME280;40208;39.778;2.710;2023-04-12T14:35:14;100625.97;;;22.55;71.87
54308;BME280;40208;39.778;2.710;2023-04-12T14:37:59;100532.63;;;21.96;72.46
54308;BME280;40208;39.778;2.710;2023-04-12T14:40:44;100594.44;;;22.09;73.58
54308;BME280;40208;39.778;2.710;2023-04-12T14:43:28;100610.19;;;22.13;73.28